Time;durP1;ratioP1;P1;durP2;ratioP2;P2;SDS_P1;SDS_P2;PMS_P1;PMS_P2;Temp;Humidity;BMP_temperature;BMP_pressure;BME280_temperature;BME280_humidity;BME280_pressure;Samples;Min_cycle;Max_cycle;Signal;HPM_P1;HPM_P2
2022/11/05 00:10:45;;;;;;;0.83;0.50;;;8.60;74.00;;;;;;5017013;28;20934;-63
2022/11/05 00:18:40;;;;;;;1.10;0.70;;;8.60;75.40;;;;;;5015220;28;20418;-63
2022/11/05 00:25:12;;;;;;;0.50;0.50;;;8.60;73.40;;;;;;5031875;28;20442;-63
2022/11/05 00:26:39;;;;;;;0.50;0.50;;;8.60;73.90;;;;;;5035342;28;20425;-63
2022/11/05 00:29:05;;;;;;;0.60;0.50;;;8.60;75.90;;;;;;5014088;28;20433;-63
2022/11/05 00:31:31;;;;;;;1.60;0.57;;;8.70;73.00;;;;;;5053739;28;20179;-63
2022/11/05 00:33:57;;;;;;;0.80;0.50;;;8.70;73.70;;;;;;5040584;28;20180;-63
2022/11/05 00:36:22;;;;;;;0.60;0.40;;;8.80;75.10;;;;;;5005046;28;20415;-63
2022/11/05 00:38:48;;;;;;;0.50;0.50;;;8.80;73.30;;;;;;4982688;28;20277;-63
2022/11/05 00:41:14;;;;;;;0.70;0.50;;;8.80;72.10;;;;;;5004587;28;20208;-63
2022/11/05 00:46:23;;;;;;;0.73;0.40;;;8.80;72.40;;;;;;5022871;28;20312;-63
2022/11/05 00:51:33;;;;;;;0.77;0.60;;;8.90;71.00;;;;;;5016188;28;20198;-63
2022/11/05 00:53:59;;;;;;;0.43;0.43;;;8.90;72.00;;;;;;5031694;28;20442;-64
2022/11/05 00:56:24;;;;;;;0.50;0.47;;;8.90;73.00;;;;;;5018102;28;20240;-63
2022/11/05 00:58:50;;;;;;;0.40;0.40;;;8.90;71.10;;;;;;5018152;28;20196;-63
2022/11/05 01:01:16;;;;;;;1.40;0.53;;;8.90;70.50;;;;;;5015663;28;20211;-63
2022/11/05 01:03:41;;;;;;;0.40;0.40;;;8.90;70.10;;;;;;5033010;28;20188;-63
2022/11/05 01:06:13;;;;;;;0.63;0.50;;;8.90;69.10;;;;;;5037803;28;20195;-63
2022/11/05 01:08:41;;;;;;;0.53;0.53;;;8.90;74.60;;;;;;5013885;28;20194;-63
2022/11/05 01:11:31;;;;;;;1.43;0.80;;;8.90;72.90;;;;;;5015722;28;20478;-63
2022/11/05 01:14:06;;;;;;;4.00;0.53;;;8.90;74.00;;;;;;5025175;28;20610;-63
2022/11/05 01:16:32;;;;;;;0.40;0.40;;;8.90;73.50;;;;;;5054008;28;20425;-63
2022/11/05 01:18:59;;;;;;;0.50;0.50;;;8.90;75.80;;;;;;4999407;28;20482;-63
2022/11/05 01:21:25;;;;;;;0.83;0.50;;;8.90;76.00;;;;;;5025609;28;20426;-63
2022/11/05 01:23:51;;;;;;;0.40;0.40;;;8.90;76.80;;;;;;5031537;28;20572;-63
2022/11/05 01:26:17;;;;;;;0.40;0.40;;;8.90;71.90;;;;;;5030932;28;20195;-63
2022/11/05 01:28:42;;;;;;;0.70;0.40;;;8.90;76.00;;;;;;5016793;28;20451;-63
2022/11/05 01:31:08;;;;;;;0.60;0.60;;;8.90;78.10;;;;;;5041318;28;20214;-63
2022/11/05 01:33:33;;;;;;;0.40;0.40;;;8.90;77.00;;;;;;5013641;28;20193;-63
2022/11/05 01:35:59;;;;;;;0.50;0.50;;;8.90;77.40;;;;;;5031148;28;20198;-63
2022/11/05 01:38:25;;;;;;;0.50;0.50;;;8.90;76.20;;;;;;5030362;28;20192;-63
2022/11/05 01:40:51;;;;;;;0.53;0.53;;;8.90;78.60;;;;;;5013431;28;20191;-63
2022/11/05 01:43:20;;;;;;;0.53;0.40;;;8.90;77.10;;;;;;5023460;28;20192;-63
2022/11/05 01:45:53;;;;;;;0.60;0.60;;;8.90;77.70;;;;;;5046692;28;20430;-63
2022/11/05 01:48:21;;;;;;;0.40;0.40;;;8.90;78.50;;;;;;5017519;28;20469;-63
2022/11/05 01:51:01;;;;;;;1.23;0.40;;;8.90;75.80;;;;;;5027828;28;20476;-63
2022/11/05 01:53:40;;;;;;;1.20;0.47;;;8.90;74.20;;;;;;5018143;28;20445;-63
2022/11/05 01:56:06;;;;;;;0.70;0.67;;;8.90;73.20;;;;;;5016195;28;20473;-63
2022/11/05 01:58:47;;;;;;;0.60;0.57;;;8.90;75.10;;;;;;5033164;28;20479;-63
2022/11/05 02:01:13;;;;;;;0.40;0.40;;;8.90;74.80;;;;;;5012124;28;20222;-63
2022/11/05 02:03:40;;;;;;;0.90;0.50;;;8.90;72.20;;;;;;5025330;28;20433;-63
2022/11/05 02:06:08;;;;;;;0.30;0.23;;;8.90;76.60;;;;;;5006364;28;20450;-63
2022/11/05 02:08:55;;;;;;;0.40;0.40;;;8.90;71.90;;;;;;5007480;28;20419;-63
2022/11/05 02:11:21;;;;;;;0.60;0.47;;;8.90;72.90;;;;;;5045391;28;20427;-63
2022/11/05 02:13:47;;;;;;;0.60;0.60;;;8.90;74.50;;;;;;5013326;28;20423;-63
2022/11/05 02:16:21;;;;;;;0.53;0.53;;;9.00;77.40;;;;;;5045801;28;20430;-63
2022/11/05 02:18:46;;;;;;;0.83;0.50;;;9.00;78.90;;;;;;5022273;28;20411;-63
2022/11/05 02:21:32;;;;;;;0.37;0.37;;;9.00;80.00;;;;;;5015959;28;20480;-63
2022/11/05 02:24:22;;;;;;;0.50;0.50;;;9.00;78.90;;;;;;5015455;28;20191;-63
2022/11/05 02:26:57;;;;;;;0.30;0.30;;;9.00;77.80;;;;;;5046659;28;20937;-63
2022/11/05 02:29:56;;;;;;;1.70;0.40;;;9.00;78.70;;;;;;5003077;28;20461;-63
2022/11/05 02:32:35;;;;;;;1.23;0.50;;;8.90;79.30;;;;;;5013857;28;20513;-63
2022/11/05 02:35:26;;;;;;;0.50;0.50;;;9.00;79.60;;;;;;5028594;28;20465;-63
2022/11/05 02:37:58;;;;;;;0.47;0.47;;;9.00;79.60;;;;;;5020517;28;20442;-63
2022/11/05 02:40:39;;;;;;;0.50;0.50;;;8.90;78.60;;;;;;5030295;28;20410;-63
2022/11/05 02:43:37;;;;;;;1.10;0.50;;;8.90;73.90;;;;;;5022578;28;20429;-63
2022/11/05 02:46:17;;;;;;;0.40;0.40;;;9.00;75.00;;;;;;5012102;28;20953;-63
2022/11/05 02:48:54;;;;;;;0.57;0.57;;;9.00;74.20;;;;;;5053906;28;20489;-63
2022/11/05 02:51:36;;;;;;;1.10;0.70;;;9.10;75.80;;;;;;5016423;28;20438;-63
2022/11/05 02:54:25;;;;;;;0.50;0.50;;;9.10;74.40;;;;;;5050564;28;20426;-63
2022/11/05 02:56:53;;;;;;;0.53;0.50;;;9.10;77.00;;;;;;5023864;28;20477;-63
2022/11/05 02:59:18;;;;;;;0.23;0.23;;;9.00;73.90;;;;;;5016684;28;20450;-63
2022/11/05 03:01:46;;;;;;;0.30;0.30;;;9.00;76.60;;;;;;5033644;28;20486;-63
2022/11/05 03:04:15;;;;;;;2.20;0.70;;;9.00;73.80;;;;;;5032006;28;20191;-63
2022/11/05 03:06:50;;;;;;;0.47;0.40;;;9.10;74.60;;;;;;5050154;28;20434;-63
2022/11/05 03:09:28;;;;;;;0.67;0.43;;;9.10;73.30;;;;;;5049391;28;20491;-63
2022/11/05 03:12:21;;;;;;;0.40;0.40;;;9.10;71.70;;;;;;5050138;28;20441;-63
2022/11/05 03:15:33;;;;;;;0.30;0.30;;;9.10;72.00;;;;;;5051394;28;20422;-63
2022/11/05 03:18:24;;;;;;;0.30;0.30;;;9.10;73.70;;;;;;5014395;28;20423;-63
2022/11/05 03:21:02;;;;;;;1.10;0.50;;;9.10;72.60;;;;;;5021296;28;20461;-63
2022/11/05 03:23:44;;;;;;;1.23;0.50;;;9.00;70.70;;;;;;5051201;28;20469;-63
2022/11/05 03:26:16;;;;;;;0.67;0.50;;;9.10;71.80;;;;;;5009395;28;20445;-63
2022/11/05 03:28:49;;;;;;;4.53;0.50;;;9.10;72.30;;;;;;5018573;28;20504;-63
2022/11/05 03:31:16;;;;;;;0.37;0.37;;;9.10;72.50;;;;;;5017293;28;20462;-63
2022/11/05 03:33:44;;;;;;;1.13;0.30;;;9.10;70.90;;;;;;5049025;28;20526;-63
2022/11/05 03:36:15;;;;;;;0.70;0.50;;;9.20;69.40;;;;;;5033310;28;20438;-63
2022/11/05 03:38:45;;;;;;;0.80;0.40;;;9.10;71.70;;;;;;5048001;28;20484;-63
2022/11/05 03:41:14;;;;;;;0.47;0.43;;;9.20;69.50;;;;;;5008207;28;20423;-63
2022/11/05 03:43:45;;;;;;;0.53;0.43;;;9.20;70.10;;;;;;5043842;28;20442;-63
2022/11/05 03:46:26;;;;;;;0.67;0.50;;;9.20;70.80;;;;;;5015765;28;20465;-63
2022/11/05 03:48:56;;;;;;;0.50;0.50;;;9.10;71.00;;;;;;5056542;28;20438;-63
2022/11/05 03:51:40;;;;;;;0.57;0.30;;;9.10;72.10;;;;;;5018245;28;20461;-63
2022/11/05 03:54:06;;;;;;;0.70;0.50;;;9.10;71.60;;;;;;5006294;28;20486;-63
2022/11/05 03:56:47;;;;;;;2.30;0.73;;;9.10;72.70;;;;;;5050228;28;20555;-63
2022/11/05 03:59:13;;;;;;;2.40;0.70;;;9.10;72.50;;;;;;5046658;28;20440;-63
2022/11/05 04:01:40;;;;;;;0.50;0.40;;;9.00;70.90;;;;;;5031554;28;20434;-63
2022/11/05 04:04:08;;;;;;;1.47;0.60;;;9.00;73.20;;;;;;5034145;28;20501;-63
2022/11/05 04:14:47;;;;;;;0.83;0.67;;;9.10;73.30;;;;;;5055242;28;20417;-63
2022/11/05 04:17:13;;;;;;;0.37;0.37;;;9.00;70.80;;;;;;4989146;28;20448;-63
2022/11/05 04:25:12;;;;;;;1.50;0.50;;;9.10;71.50;;;;;;5015992;28;20474;-63
2022/11/05 04:27:38;;;;;;;0.97;0.60;;;9.10;75.50;;;;;;5015922;28;20986;-63
2022/11/05 04:30:20;;;;;;;0.43;0.43;;;9.10;76.80;;;;;;5003112;28;20537;-63
2022/11/05 04:33:08;;;;;;;0.50;0.43;;;9.10;76.40;;;;;;5014352;28;20186;-63
2022/11/05 04:35:47;;;;;;;0.40;0.33;;;9.10;74.00;;;;;;5021156;28;20430;-63
2022/11/05 04:38:18;;;;;;;0.40;0.40;;;9.10;75.00;;;;;;5051806;28;20433;-63
2022/11/05 04:40:45;;;;;;;0.40;0.40;;;9.10;75.60;;;;;;5047850;28;20521;-63
2022/11/05 04:43:13;;;;;;;0.40;0.40;;;9.10;76.60;;;;;;5024531;28;20443;-63
2022/11/05 04:45:40;;;;;;;0.93;0.40;;;9.10;77.80;;;;;;5016047;28;20505;-63
2022/11/05 04:48:06;;;;;;;3.07;0.70;;;9.10;75.10;;;;;;5040413;28;20444;-63
2022/11/05 04:50:32;;;;;;;1.13;0.57;;;9.10;73.80;;;;;;5032838;28;20477;-63
2022/11/05 04:52:58;;;;;;;3.17;0.87;;;9.10;75.60;;;;;;5030962;28;20191;-63
2022/11/05 04:55:24;;;;;;;1.77;0.67;;;9.10;77.60;;;;;;5016967;28;20188;-63
2022/11/05 04:57:52;;;;;;;0.63;0.60;;;9.10;78.40;;;;;;5047450;28;20431;-63
2022/11/05 05:00:19;;;;;;;1.17;0.70;;;9.00;72.80;;;;;;5031155;28;20443;-63
2022/11/05 05:02:45;;;;;;;1.07;0.60;;;9.10;75.70;;;;;;5034289;28;20438;-63
2022/11/05 05:05:12;;;;;;;0.77;0.60;;;9.10;74.80;;;;;;5031159;28;20427;-63
2022/11/05 05:07:38;;;;;;;1.27;0.60;;;9.00;76.50;;;;;;5006744;28;20465;-63
2022/11/05 05:10:05;;;;;;;0.70;0.70;;;9.10;76.80;;;;;;5030408;28;20955;-63
2022/11/05 05:12:32;;;;;;;0.97;0.73;;;9.10;73.80;;;;;;5047382;28;20435;-63
2022/11/05 05:14:58;;;;;;;0.73;0.73;;;9.10;76.90;;;;;;5013814;28;20427;-63
2022/11/05 05:17:24;;;;;;;1.00;0.80;;;9.10;77.60;;;;;;5038045;28;20461;-63
2022/11/05 05:22:34;;;;;;;0.60;0.60;;;9.10;75.20;;;;;;5015652;28;21114;-63
2022/11/05 05:24:59;;;;;;;0.93;0.80;;;9.00;74.90;;;;;;4997569;28;20509;-63
2022/11/05 05:27:29;;;;;;;2.50;0.57;;;9.00;77.40;;;;;;4982650;28;20187;-63
2022/11/05 05:29:57;;;;;;;0.77;0.50;;;9.10;78.50;;;;;;5054762;28;20207;-63
2022/11/05 05:32:23;;;;;;;0.60;0.50;;;9.00;77.40;;;;;;5054294;28;20422;-63
2022/11/05 05:34:49;;;;;;;0.50;0.50;;;9.00;76.80;;;;;;5013333;28;20438;-64
2022/11/05 05:37:14;;;;;;;2.00;0.80;;;9.10;77.20;;;;;;5027562;28;20519;-64
2022/11/05 05:39:40;;;;;;;0.50;0.43;;;9.10;77.30;;;;;;5007420;28;20218;-65
2022/11/05 05:42:06;;;;;;;0.90;0.53;;;9.10;78.80;;;;;;5028876;28;20215;-64
2022/11/05 05:44:31;;;;;;;0.60;0.50;;;9.10;77.30;;;;;;4991235;28;20280;-65
2022/11/05 05:46:57;;;;;;;0.50;0.50;;;8.90;75.00;;;;;;5015569;28;20629;-64
2022/11/05 05:49:23;;;;;;;1.93;0.80;;;9.00;76.60;;;;;;5002411;28;20216;-64
2022/11/05 05:51:48;;;;;;;0.77;0.73;;;9.10;78.40;;;;;;5030536;28;20655;-64
2022/11/05 05:54:14;;;;;;;2.23;0.70;;;9.10;78.80;;;;;;5020500;28;20195;-64
2022/11/05 05:56:43;;;;;;;1.17;0.70;;;9.20;79.40;;;;;;5000812;28;20246;-65
2022/11/05 05:59:08;;;;;;;0.73;0.50;;;9.20;79.30;;;;;;5004519;28;20188;-63
2022/11/05 06:01:34;;;;;;;1.63;0.93;;;9.10;79.10;;;;;;5015678;28;20489;-64
2022/11/05 06:04:00;;;;;;;3.40;0.70;;;9.10;78.00;;;;;;5012144;28;20246;-64
2022/11/05 06:06:25;;;;;;;1.37;0.90;;;9.10;79.50;;;;;;5029794;28;20195;-64
2022/11/05 06:08:51;;;;;;;0.57;0.57;;;9.10;79.30;;;;;;5029920;28;20195;-64
2022/11/05 06:11:17;;;;;;;1.20;0.77;;;9.10;77.50;;;;;;5016907;28;20226;-64
2022/11/05 06:13:43;;;;;;;0.50;0.50;;;9.10;78.80;;;;;;5039738;28;20585;-64
2022/11/05 06:16:09;;;;;;;2.37;0.70;;;9.10;78.40;;;;;;4993449;28;20231;-63
2022/11/05 06:18:35;;;;;;;2.87;0.70;;;9.10;76.30;;;;;;5028420;28;20187;-63
2022/11/05 06:21:02;;;;;;;0.93;0.70;;;9.10;74.90;;;;;;5045505;28;20434;-64
2022/11/05 06:23:32;;;;;;;0.67;0.50;;;9.30;68.50;;;;;;5013557;28;20180;-63
2022/11/05 06:26:00;;;;;;;0.50;0.50;;;9.30;72.10;;;;;;5016442;28;20462;-64
2022/11/05 06:28:26;;;;;;;0.70;0.70;;;9.40;74.20;;;;;;5045888;28;20434;-64
2022/11/05 06:30:52;;;;;;;0.50;0.50;;;9.40;76.40;;;;;;5019649;28;20473;-64
2022/11/05 06:33:17;;;;;;;0.77;0.77;;;9.40;73.30;;;;;;5020754;28;20202;-64
2022/11/05 06:35:43;;;;;;;1.17;0.97;;;9.40;73.60;;;;;;5001577;28;20187;-64
2022/11/05 06:38:08;;;;;;;0.57;0.57;;;9.40;73.50;;;;;;5012305;28;20194;-64
2022/11/05 06:40:34;;;;;;;1.50;0.67;;;9.40;74.80;;;;;;5029105;28;20183;-64
2022/11/05 06:43:00;;;;;;;1.60;0.80;;;9.50;76.00;;;;;;5029132;28;20187;-64
2022/11/05 06:45:25;;;;;;;0.60;0.60;;;9.50;76.40;;;;;;5021827;28;20677;-64
2022/11/05 06:47:58;;;;;;;1.20;0.70;;;9.60;77.60;;;;;;5029333;28;20188;-64
2022/11/05 06:50:25;;;;;;;1.00;0.80;;;9.60;78.20;;;;;;5007759;28;20196;-65
2022/11/05 06:52:59;;;;;;;1.57;0.90;;;9.60;78.70;;;;;;5030842;28;20180;-65
2022/11/05 06:55:26;;;;;;;1.30;0.67;;;9.70;79.10;;;;;;5045721;28;20421;-64
2022/11/05 06:57:52;;;;;;;1.00;0.90;;;9.70;79.60;;;;;;5002376;28;20527;-64
2022/11/05 07:00:18;;;;;;;0.80;0.80;;;9.70;79.30;;;;;;5018589;28;20536;-64
2022/11/05 07:02:45;;;;;;;0.93;0.80;;;9.70;79.00;;;;;;5048586;28;20179;-63
2022/11/05 07:05:11;;;;;;;2.50;0.90;;;9.80;75.40;;;;;;5018080;28;20246;-63
2022/11/05 07:07:38;;;;;;;2.70;1.00;;;9.80;77.20;;;;;;5030442;28;20438;-61
2022/11/05 07:10:07;;;;;;;2.00;0.90;;;9.80;78.60;;;;;;5014297;28;21283;-62
2022/11/05 07:12:32;;;;;;;2.30;0.83;;;9.90;75.50;;;;;;5010900;28;20218;-62
2022/11/05 07:14:58;;;;;;;1.03;0.80;;;9.90;72.60;;;;;;4987768;28;20446;-62
2022/11/05 07:17:24;;;;;;;1.70;0.77;;;9.90;74.20;;;;;;5017138;28;20194;-64
2022/11/05 07:19:49;;;;;;;1.03;0.83;;;10.00;74.20;;;;;;5026701;28;20192;-64
2022/11/05 07:22:15;;;;;;;1.17;0.70;;;10.00;71.10;;;;;;5025344;28;20200;-63
2022/11/05 07:24:41;;;;;;;1.10;1.00;;;10.10;68.60;;;;;;5030126;28;20258;-64
2022/11/05 07:27:07;;;;;;;2.60;0.70;;;10.10;70.90;;;;;;5046013;28;20184;-63
2022/11/05 07:29:32;;;;;;;0.97;0.80;;;10.20;71.90;;;;;;4994288;28;20253;-63
2022/11/05 07:31:58;;;;;;;0.63;0.63;;;10.20;70.40;;;;;;4982148;28;20188;-63
2022/11/05 07:34:24;;;;;;;1.00;0.77;;;10.20;71.80;;;;;;5030354;28;20206;-63
2022/11/05 07:36:50;;;;;;;0.70;0.60;;;10.30;66.90;;;;;;4993547;28;20258;-63
2022/11/05 07:39:15;;;;;;;3.20;0.70;;;10.30;70.70;;;;;;5017413;28;20184;-63
2022/11/05 07:41:41;;;;;;;0.97;0.80;;;10.40;69.50;;;;;;4978207;28;20188;-63
2022/11/05 07:44:07;;;;;;;0.97;0.60;;;10.40;69.30;;;;;;5007254;28;20184;-63
2022/11/05 07:46:33;;;;;;;0.77;0.73;;;10.50;70.90;;;;;;5013558;28;20180;-63
2022/11/05 07:48:58;;;;;;;1.33;0.70;;;10.60;73.40;;;;;;4998444;28;20191;-63
2022/11/05 07:51:25;;;;;;;0.80;0.67;;;10.60;70.30;;;;;;5046607;28;20250;-64
2022/11/05 07:53:50;;;;;;;0.77;0.60;;;10.60;69.10;;;;;;5029852;28;20207;-64
2022/11/05 07:56:16;;;;;;;0.90;0.70;;;10.70;69.30;;;;;;5030270;28;20236;-63
2022/11/05 07:58:41;;;;;;;0.90;0.80;;;10.80;71.90;;;;;;5012298;28;20191;-64
2022/11/05 08:01:07;;;;;;;0.70;0.70;;;10.80;67.00;;;;;;5033449;28;20191;-63
2022/11/05 08:03:33;;;;;;;0.80;0.63;;;10.80;64.50;;;;;;5028708;28;20269;-63
2022/11/05 08:05:59;;;;;;;0.50;0.50;;;10.80;66.90;;;;;;5010662;28;20231;-64
2022/11/05 08:08:25;;;;;;;1.27;0.60;;;10.90;68.50;;;;;;5031839;28;20205;-64
2022/11/05 08:10:50;;;;;;;0.50;0.50;;;10.90;70.20;;;;;;5015206;28;20202;-63
2022/11/05 08:13:17;;;;;;;1.57;0.47;;;11.00;72.50;;;;;;5052752;28;20180;-63
2022/11/05 08:15:42;;;;;;;1.73;0.50;;;11.00;65.50;;;;;;5029919;28;20194;-64
2022/11/05 08:18:15;;;;;;;1.90;0.70;;;11.00;68.50;;;;;;5046564;28;20183;-63
2022/11/05 08:20:42;;;;;;;1.30;0.60;;;11.10;70.40;;;;;;5044738;28;20180;-63
2022/11/05 08:23:09;;;;;;;1.37;0.93;;;11.10;70.70;;;;;;5011574;28;20192;-64
2022/11/05 08:25:34;;;;;;;2.70;0.80;;;11.20;69.60;;;;;;5029369;28;20192;-64
2022/11/05 08:28:03;;;;;;;1.90;0.90;;;11.20;66.30;;;;;;5047382;28;20215;-64
2022/11/05 08:30:29;;;;;;;1.30;0.90;;;11.10;66.30;;;;;;5012849;28;20211;-64
2022/11/05 08:32:57;;;;;;;1.57;0.67;;;11.30;69.70;;;;;;5013066;28;20275;-64
2022/11/05 08:35:23;;;;;;;2.70;0.70;;;11.30;71.70;;;;;;5011902;28;20183;-64
2022/11/05 08:37:48;;;;;;;0.73;0.70;;;11.30;73.80;;;;;;5030585;28;20191;-64
2022/11/05 08:40:14;;;;;;;0.60;0.53;;;11.30;73.70;;;;;;5011715;28;20200;-64
2022/11/05 08:42:40;;;;;;;2.43;1.47;;;11.30;74.10;;;;;;5011186;28;20192;-64
2022/11/05 08:45:06;;;;;;;2.60;1.73;;;11.40;73.80;;;;;;5027940;28;20191;-64
2022/11/05 08:47:31;;;;;;;1.30;1.00;;;11.50;73.40;;;;;;5028799;28;20192;-64
2022/11/05 08:49:57;;;;;;;5.80;3.03;;;11.50;73.50;;;;;;4983804;28;20270;-64
2022/11/05 08:52:23;;;;;;;6.93;4.50;;;11.50;75.00;;;;;;5003155;28;20199;-64
2022/11/05 08:54:48;;;;;;;9.03;7.10;;;11.60;73.40;;;;;;5014571;28;20251;-64
2022/11/05 08:57:14;;;;;;;22.17;18.40;;;11.60;71.50;;;;;;5028385;28;20242;-64
2022/11/05 08:59:40;;;;;;;13.13;9.60;;;11.60;72.20;;;;;;5012006;28;20192;-64
2022/11/05 09:02:05;;;;;;;7.50;5.67;;;11.60;72.50;;;;;;5018343;28;20280;-64
2022/11/05 09:04:31;;;;;;;0.97;0.77;;;11.70;73.20;;;;;;5008581;28;20317;-64
2022/11/05 09:06:57;;;;;;;1.60;0.80;;;11.70;64.40;;;;;;5000383;28;20271;-64
2022/11/05 09:09:22;;;;;;;3.40;0.80;;;11.60;62.10;;;;;;5025114;28;20180;-64
2022/11/05 09:11:48;;;;;;;0.80;0.70;;;11.70;65.40;;;;;;5020706;28;20188;-64
2022/11/05 09:14:14;;;;;;;0.80;0.80;;;11.70;66.00;;;;;;5027830;28;20186;-64
2022/11/05 09:16:41;;;;;;;2.10;0.87;;;11.70;64.50;;;;;;4992138;28;20180;-64
2022/11/05 09:19:07;;;;;;;2.50;1.27;;;11.80;65.40;;;;;;5015780;28;20301;-64
2022/11/05 09:21:33;;;;;;;0.73;0.50;;;11.80;64.70;;;;;;5006917;28;20286;-64
2022/11/05 09:23:59;;;;;;;1.90;1.10;;;11.80;64.00;;;;;;4998375;28;20500;-64
2022/11/05 09:26:24;;;;;;;0.93;0.60;;;11.80;61.90;;;;;;5027631;28;20195;-64
2022/11/05 09:28:50;;;;;;;0.60;0.60;;;11.90;61.60;;;;;;5011865;28;20198;-64
2022/11/05 09:31:16;;;;;;;1.77;0.50;;;11.80;60.00;;;;;;5029322;28;20309;-64
2022/11/05 09:33:41;;;;;;;0.80;0.60;;;11.90;61.10;;;;;;5004337;28;20188;-64
2022/11/05 09:36:07;;;;;;;1.70;0.90;;;11.90;62.70;;;;;;5011919;28;20195;-64
2022/11/05 09:38:34;;;;;;;2.03;0.80;;;12.00;64.10;;;;;;5018320;28;20281;-64
2022/11/05 09:41:02;;;;;;;1.20;0.60;;;12.00;61.70;;;;;;5028149;28;20184;-64
2022/11/05 09:43:43;;;;;;;1.20;0.87;;;12.10;60.10;;;;;;5001613;28;20210;-64
2022/11/05 09:46:23;;;;;;;0.70;0.50;;;12.10;62.00;;;;;;5059561;28;20199;-64
2022/11/05 09:48:54;;;;;;;0.83;0.60;;;12.10;58.70;;;;;;5016807;28;20182;-64
2022/11/05 09:51:20;;;;;;;0.77;0.70;;;12.10;60.70;;;;;;5017376;28;20211;-64
2022/11/05 09:53:47;;;;;;;0.90;0.60;;;12.20;62.00;;;;;;5013896;28;20187;-64
2022/11/05 09:56:29;;;;;;;3.30;1.97;;;12.20;62.80;;;;;;4991696;28;20311;-64
2022/11/05 09:59:18;;;;;;;0.70;0.60;;;12.30;65.00;;;;;;5010325;28;20183;-64
2022/11/05 10:01:45;;;;;;;19.20;9.30;;;12.30;59.60;;;;;;5005552;28;20184;-64
2022/11/05 10:04:19;;;;;;;3.57;1.20;;;12.30;61.30;;;;;;5040178;28;20188;-64
2022/11/05 10:06:59;;;;;;;2.73;1.23;;;12.20;60.30;;;;;;4999125;28;20277;-64
2022/11/05 10:09:42;;;;;;;0.70;0.57;;;12.20;60.50;;;;;;5042599;28;20180;-64
2022/11/05 10:12:32;;;;;;;1.30;0.90;;;12.20;60.70;;;;;;5012854;28;20187;-64
2022/11/05 10:15:15;;;;;;;1.90;0.80;;;12.20;61.90;;;;;;5000961;28;20168;-64
2022/11/05 10:17:47;;;;;;;1.73;0.60;;;12.20;61.30;;;;;;5043477;28;20179;-64
2022/11/05 10:20:30;;;;;;;0.80;0.57;;;12.20;60.50;;;;;;5018509;28;20183;-64
2022/11/05 10:22:59;;;;;;;0.40;0.40;;;12.30;61.30;;;;;;5013140;28;20186;-64
2022/11/05 10:25:30;;;;;;;0.70;0.40;;;12.30;59.00;;;;;;5011419;28;20622;-64
2022/11/05 10:27:58;;;;;;;0.77;0.77;;;12.20;58.80;;;;;;5042984;28;20194;-64
2022/11/05 10:30:24;;;;;;;2.27;1.20;;;12.20;58.70;;;;;;5043971;28;20310;-64
2022/11/05 10:32:54;;;;;;;1.40;1.13;;;12.30;57.50;;;;;;5025213;28;20248;-64
2022/11/05 10:35:23;;;;;;;0.70;0.70;;;12.30;59.00;;;;;;5007901;28;20190;-64
2022/11/05 10:37:50;;;;;;;0.53;0.53;;;12.30;60.90;;;;;;5013192;28;20192;-64
2022/11/05 10:40:38;;;;;;;0.63;0.47;;;12.40;60.60;;;;;;5001444;28;20708;-64
2022/11/05 10:43:27;;;;;;;0.63;0.63;;;12.40;59.70;;;;;;5051779;28;20204;-64
2022/11/05 10:46:26;;;;;;;2.47;1.30;;;12.50;60.90;;;;;;5019935;28;20187;-64
2022/11/05 10:49:10;;;;;;;0.63;0.63;;;12.60;62.00;;;;;;5008303;28;20190;-64
2022/11/05 10:51:37;;;;;;;1.37;0.53;;;12.50;58.40;;;;;;5042221;28;20211;-64
2022/11/05 10:54:11;;;;;;;1.27;0.60;;;12.50;57.00;;;;;;5010894;28;20314;-64
2022/11/05 10:56:39;;;;;;;0.30;0.30;;;12.60;58.80;;;;;;5011226;28;20311;-64
2022/11/05 10:59:18;;;;;;;0.50;0.50;;;12.50;57.30;;;;;;5010216;28;20186;-64
2022/11/05 11:01:45;;;;;;;0.50;0.50;;;12.60;57.80;;;;;;5006277;28;20219;-64
2022/11/05 11:04:11;;;;;;;0.50;0.50;;;12.60;58.20;;;;;;5013481;28;20206;-64
2022/11/05 11:06:38;;;;;;;0.70;0.70;;;12.70;57.70;;;;;;5047418;28;20184;-64
2022/11/05 11:09:24;;;;;;;1.07;0.53;;;12.80;59.40;;;;;;5002628;28;20237;-64
2022/11/05 11:12:04;;;;;;;1.03;0.70;;;12.80;57.70;;;;;;5009385;28;20197;-64
2022/11/05 11:14:30;;;;;;;0.60;0.60;;;12.90;60.40;;;;;;5011485;28;20183;-64
2022/11/05 11:17:25;;;;;;;1.90;0.57;;;12.90;57.20;;;;;;5030025;28;20183;-64
2022/11/05 11:20:10;;;;;;;0.43;0.40;;;12.90;55.80;;;;;;5012784;28;20195;-64
2022/11/05 11:22:35;;;;;;;0.70;0.50;;;12.80;54.70;;;;;;5008348;28;20195;-64
2022/11/05 11:25:22;;;;;;;0.97;0.47;;;12.90;57.20;;;;;;5028087;28;20192;-64
2022/11/05 11:27:48;;;;;;;0.40;0.40;;;13.00;58.80;;;;;;5013759;28;20179;-64
2022/11/05 11:30:18;;;;;;;0.93;0.40;;;13.00;58.20;;;;;;5031617;28;20219;-64
2022/11/05 11:32:45;;;;;;;0.30;0.30;;;13.10;55.50;;;;;;5030593;28;20599;-64
2022/11/05 11:35:22;;;;;;;0.60;0.60;;;13.10;58.10;;;;;;5014088;28;20411;-64
2022/11/05 11:37:50;;;;;;;0.77;0.60;;;13.20;58.10;;;;;;5015473;28;20190;-64
2022/11/05 11:40:27;;;;;;;1.80;0.50;;;13.20;56.80;;;;;;5014365;28;20191;-64
2022/11/05 11:42:59;;;;;;;0.40;0.40;;;13.20;57.80;;;;;;5046484;28;20654;-64
2022/11/05 11:45:51;;;;;;;1.70;0.63;;;13.20;56.50;;;;;;5021887;28;20299;-64
2022/11/05 11:48:21;;;;;;;0.97;0.40;;;13.20;57.50;;;;;;5027263;28;20275;-64
2022/11/05 11:50:47;;;;;;;1.60;0.90;;;13.30;58.20;;;;;;5046121;28;20223;-64
2022/11/05 11:53:16;;;;;;;1.17;1.00;;;13.40;59.00;;;;;;5026181;28;20184;-64
2022/11/05 11:55:58;;;;;;;0.63;0.63;;;13.40;58.30;;;;;;5046130;28;20184;-64
2022/11/05 11:58:39;;;;;;;1.00;0.90;;;13.40;58.30;;;;;;5046281;28;20183;-64
2022/11/05 12:01:25;;;;;;;2.80;2.27;;;13.50;57.40;;;;;;5046991;28;20208;-64
2022/11/05 12:03:59;;;;;;;1.40;0.80;;;13.60;58.10;;;;;;5046151;28;20191;-64
2022/11/05 12:06:52;;;;;;;0.63;0.53;;;13.60;58.00;;;;;;5045934;28;20292;-64
2022/11/05 12:09:26;;;;;;;2.60;1.00;;;13.70;57.90;;;;;;5019643;28;20194;-64
2022/11/05 12:12:13;;;;;;;2.27;0.57;;;13.80;57.60;;;;;;5013346;28;20551;-64
2022/11/05 12:15:05;;;;;;;0.60;0.50;;;13.80;55.40;;;;;;5011656;28;20220;-64
2022/11/05 12:17:36;;;;;;;0.30;0.30;;;13.80;57.30;;;;;;5037217;28;20231;-64
2022/11/05 12:20:32;;;;;;;0.80;0.80;;;13.80;55.00;;;;;;5005470;28;20244;-64
2022/11/05 12:23:28;;;;;;;1.27;0.80;;;13.80;56.40;;;;;;5013015;28;20187;-64
2022/11/05 12:26:04;;;;;;;1.00;0.70;;;13.90;56.60;;;;;;5011274;28;20196;-64
2022/11/05 12:28:42;;;;;;;0.67;0.63;;;13.90;55.60;;;;;;5013484;28;20211;-64
2022/11/05 12:31:11;;;;;;;1.70;0.60;;;13.90;54.70;;;;;;5013026;28;20291;-64
2022/11/05 12:34:08;;;;;;;0.40;0.40;;;13.90;53.50;;;;;;5014674;28;20655;-64
2022/11/05 12:36:42;;;;;;;1.30;0.70;;;13.70;51.60;;;;;;5014425;28;20184;-64
2022/11/05 12:39:32;;;;;;;1.30;1.07;;;13.70;54.40;;;;;;5050636;28;20179;-64
2022/11/05 12:42:04;;;;;;;1.30;0.97;;;13.70;55.70;;;;;;5014570;28;20179;-64
2022/11/05 12:44:41;;;;;;;1.23;0.43;;;13.60;54.70;;;;;;5045012;28;20218;-64
2022/11/05 12:47:41;;;;;;;0.60;0.60;;;13.50;54.00;;;;;;5012734;28;20218;-64
2022/11/05 12:50:55;;;;;;;0.30;0.30;;;13.50;55.50;;;;;;5012756;28;20342;-64
2022/11/05 12:53:45;;;;;;;0.40;0.40;;;13.40;54.70;;;;;;5023330;28;20180;-64
2022/11/05 12:56:34;;;;;;;0.73;0.60;;;13.50;56.60;;;;;;5009258;28;20231;-64
2022/11/05 12:59:19;;;;;;;0.40;0.40;;;13.50;57.10;;;;;;5021296;28;20180;-64
2022/11/05 13:01:56;;;;;;;0.70;0.50;;;13.40;55.50;;;;;;5052153;28;20179;-64
2022/11/05 13:04:34;;;;;;;0.40;0.40;;;13.30;55.80;;;;;;5045406;28;20184;-64
2022/11/05 13:07:04;;;;;;;1.77;0.50;;;13.40;57.10;;;;;;5003845;28;20183;-64
2022/11/05 13:09:48;;;;;;;1.03;0.77;;;13.30;56.30;;;;;;5012686;28;20259;-64
2022/11/05 13:12:17;;;;;;;0.97;0.60;;;13.30;57.20;;;;;;5020318;28;20198;-64
2022/11/05 13:14:52;;;;;;;0.50;0.50;;;13.40;57.30;;;;;;5045462;28;20172;-64
2022/11/05 13:17:22;;;;;;;0.60;0.50;;;13.50;57.80;;;;;;5032261;28;20192;-64
2022/11/05 13:19:48;;;;;;;0.40;0.40;;;13.50;57.20;;;;;;5011705;28;20260;-64
2022/11/05 13:22:42;;;;;;;3.70;0.80;;;13.40;56.40;;;;;;5044367;28;20329;-64
2022/11/05 13:25:24;;;;;;;0.60;0.60;;;13.40;57.40;;;;;;5012374;28;20183;-64
2022/11/05 13:27:56;;;;;;;0.30;0.30;;;13.30;57.50;;;;;;5020796;28;20266;-64
2022/11/05 13:30:27;;;;;;;0.50;0.50;;;13.30;56.00;;;;;;5011535;28;20220;-64
2022/11/05 13:33:03;;;;;;;0.87;0.57;;;13.20;55.50;;;;;;5044717;28;20184;-64
2022/11/05 13:35:40;;;;;;;0.70;0.40;;;13.20;54.90;;;;;;5010891;28;20179;-64
2022/11/05 13:41:18;;;;;;;1.17;0.70;;;13.00;55.20;;;;;;5014975;28;20210;-64
2022/11/05 13:43:44;;;;;;;0.50;0.47;;;13.00;54.00;;;;;;5007441;28;20192;-64
2022/11/05 13:46:28;;;;;;;0.73;0.40;;;13.10;55.10;;;;;;5047509;28;20187;-64
2022/11/05 13:49:15;;;;;;;1.63;1.13;;;13.10;55.80;;;;;;5044432;28;20186;-64
2022/11/05 13:51:55;;;;;;;0.97;0.83;;;13.00;55.20;;;;;;5042782;28;20215;-64
2022/11/05 13:54:40;;;;;;;1.07;0.90;;;13.00;54.80;;;;;;5042998;28;20189;-64
2022/11/05 13:57:17;;;;;;;0.90;0.70;;;13.20;55.50;;;;;;5043314;28;20234;-64
2022/11/05 13:59:46;;;;;;;0.60;0.37;;;13.20;53.70;;;;;;5043731;28;20654;-64